createdAt,value
2023-03-30T00:00:18.649Z,2.92
2023-03-30T00:02:46.046Z,2.45
2023-03-30T00:05:13.814Z,2.35
2023-03-30T00:07:42.221Z,2.13
2023-03-30T00:10:09.768Z,2.92
2023-03-30T00:12:36.269Z,2.20
2023-03-30T00:15:02.668Z,2.53
2023-03-30T00:17:29.727Z,2.45
2023-03-30T00:19:56.316Z,2.20
2023-03-30T00:22:22.626Z,2.50
2023-03-30T00:24:48.925Z,2.78
2023-03-30T00:27:15.252Z,2.38
2023-03-30T00:29:42.443Z,3.05
2023-03-30T00:32:09.319Z,2.13
2023-03-30T00:34:35.705Z,2.67
2023-03-30T00:37:03.096Z,2.03
2023-03-30T00:39:29.433Z,2.40
2023-03-30T00:41:55.900Z,2.03
2023-03-30T00:44:40.974Z,3.53
2023-03-30T00:47:08.176Z,2.22
2023-03-30T00:49:34.689Z,1.90
2023-03-30T00:52:02.345Z,1.85
2023-03-30T00:54:28.642Z,2.72
2023-03-30T00:56:55.009Z,2.17
2023-03-30T00:59:21.650Z,2.00
2023-03-30T01:01:50.181Z,2.90
2023-03-30T01:04:20.733Z,2.80
2023-03-30T01:06:48.838Z,1.80
2023-03-30T01:09:16.467Z,2.38
2023-03-30T01:11:43.431Z,2.75
2023-03-30T01:14:11.197Z,1.95
2023-03-30T01:16:43.161Z,2.78
2023-03-30T01:19:18.848Z,2.88
2023-03-30T01:21:51.340Z,2.33
2023-03-30T01:24:31.490Z,2.40
2023-03-30T01:26:59.777Z,2.53
2023-03-30T01:29:40.311Z,2.35
2023-03-30T01:32:13.948Z,1.75
2023-03-30T01:34:49.545Z,2.20
2023-03-30T01:37:30.386Z,1.80
2023-03-30T01:39:56.730Z,2.63
2023-03-30T01:42:38.322Z,2.47
2023-03-30T01:45:23.354Z,2.88
2023-03-30T01:47:49.660Z,2.10
2023-03-30T01:50:20.313Z,2.45
2023-03-30T01:52:58.929Z,1.75
2023-03-30T01:55:25.290Z,2.83
2023-03-30T01:58:01.493Z,2.55
2023-03-30T02:00:28.766Z,2.40
2023-03-30T02:03:01.400Z,2.03
2023-03-30T02:05:28.743Z,2.30
2023-03-30T02:08:01.330Z,3.40
2023-03-30T02:10:29.791Z,2.25
2023-03-30T02:12:57.059Z,1.85
2023-03-30T02:15:24.229Z,1.90
2023-03-30T02:17:50.592Z,2.13
2023-03-30T02:20:17.661Z,1.92
2023-03-30T02:22:44.484Z,1.92
2023-03-30T02:25:10.886Z,2.50
2023-03-30T02:27:38.532Z,1.70
2023-03-30T02:30:05.976Z,2.40
2023-03-30T02:32:37.149Z,2.90
2023-03-30T02:35:23.871Z,1.98
2023-03-30T02:37:53.658Z,2.53
2023-03-30T02:40:38.731Z,2.35
2023-03-30T02:43:24.449Z,1.95
2023-03-30T02:46:02.994Z,1.73
2023-03-30T02:48:48.053Z,2.30
2023-03-30T02:51:33.184Z,2.13
2023-03-30T02:54:02.060Z,2.60
2023-03-30T02:56:43.108Z,2.22
2023-03-30T02:59:26.016Z,2.25
2023-03-30T03:01:52.448Z,1.70
2023-03-30T03:04:19.275Z,1.85
2023-03-30T03:06:45.825Z,2.03
2023-03-30T03:09:12.106Z,1.83
2023-03-30T03:11:38.431Z,2.50
2023-03-30T03:14:04.774Z,1.42
2023-03-30T03:16:31.164Z,1.63
2023-03-30T03:18:57.629Z,2.35
2023-03-30T03:21:23.943Z,2.58
2023-03-30T03:23:50.401Z,1.80
2023-03-30T03:26:16.692Z,2.10
2023-03-30T03:28:43.021Z,1.52
2023-03-30T03:31:09.833Z,1.10
2023-03-30T03:33:36.294Z,2.08
2023-03-30T03:36:02.714Z,1.70
2023-03-30T03:38:29.265Z,1.45
2023-03-30T03:40:56.886Z,1.90
2023-03-30T03:43:23.600Z,1.60
2023-03-30T03:45:50.653Z,1.38
2023-03-30T03:48:18.114Z,1.70
2023-03-30T03:50:44.804Z,1.23
2023-03-30T03:53:11.660Z,1.42
2023-03-30T03:55:38.063Z,1.58
2023-03-30T03:58:05.205Z,1.95
2023-03-30T04:00:32.171Z,1.73
2023-03-30T04:02:58.534Z,1.67
2023-03-30T04:05:25.217Z,1.85
2023-03-30T04:07:53.486Z,1.30
2023-03-30T04:10:20.551Z,1.70
2023-03-30T04:12:46.884Z,1.42
2023-03-30T04:15:13.377Z,1.30
2023-03-30T04:17:39.764Z,2.65
2023-03-30T04:20:12.048Z,2.00
2023-03-30T04:22:41.915Z,1.50
2023-03-30T04:25:09.740Z,2.15
2023-03-30T04:27:37.687Z,1.90
2023-03-30T04:30:05.487Z,1.52
2023-03-30T04:32:34.849Z,1.63
2023-03-30T04:35:01.554Z,2.45
2023-03-30T04:37:30.630Z,2.08
2023-03-30T04:39:58.124Z,1.77
2023-03-30T04:42:30.499Z,2.25
2023-03-30T04:44:57.762Z,1.77
2023-03-30T04:47:27.675Z,1.73
2023-03-30T04:49:54.029Z,1.90
2023-03-30T04:52:20.797Z,1.90
2023-03-30T04:54:47.081Z,2.22
2023-03-30T04:57:16.466Z,2.00
2023-03-30T04:59:43.228Z,2.15
2023-03-30T05:02:10.165Z,1.40
2023-03-30T05:04:37.057Z,1.48
2023-03-30T05:07:03.812Z,1.33
2023-03-30T05:09:30.094Z,3.08
2023-03-30T05:11:56.579Z,1.45
2023-03-30T05:14:22.840Z,2.10
2023-03-30T05:16:49.235Z,2.00
2023-03-30T05:19:15.806Z,5.00
2023-03-30T05:21:42.137Z,1.50
2023-03-30T05:24:08.504Z,3.05
2023-03-30T05:26:34.913Z,1.85
2023-03-30T05:29:01.320Z,4.53
2023-03-30T05:31:28.029Z,2.25
2023-03-30T05:33:54.611Z,1.85
2023-03-30T05:36:20.964Z,2.63
2023-03-30T05:38:47.338Z,2.38
2023-03-30T05:41:13.615Z,1.80
2023-03-30T05:43:39.900Z,1.70
2023-03-30T05:46:06.505Z,4.35
2023-03-30T05:48:32.834Z,2.10
2023-03-30T05:51:01.723Z,2.08
2023-03-30T05:53:28.808Z,2.50
2023-03-30T05:55:55.178Z,2.85
2023-03-30T05:58:21.554Z,2.20
2023-03-30T06:00:49.733Z,3.85
2023-03-30T06:03:16.438Z,2.83
2023-03-30T06:05:43.832Z,2.78
2023-03-30T06:08:10.828Z,3.13
2023-03-30T06:10:37.752Z,2.00
2023-03-30T06:13:04.605Z,1.73
2023-03-30T06:15:31.072Z,2.63
2023-03-30T06:17:59.262Z,1.98
2023-03-30T06:20:26.187Z,2.15
2023-03-30T06:22:52.580Z,3.78
2023-03-30T06:25:23.527Z,1.75
2023-03-30T06:27:49.944Z,2.25
2023-03-30T06:30:16.891Z,1.42
2023-03-30T06:32:43.503Z,2.10
2023-03-30T06:35:10.122Z,3.42
2023-03-30T06:37:36.625Z,1.50
2023-03-30T06:40:16.025Z,1.45
2023-03-30T06:42:44.138Z,1.80
2023-03-30T06:45:11.292Z,1.50
2023-03-30T06:47:37.717Z,1.80
2023-03-30T06:50:04.451Z,2.08
2023-03-30T06:52:33.980Z,2.13
2023-03-30T06:55:00.582Z,1.67
2023-03-30T06:57:26.971Z,1.75
2023-03-30T06:59:53.410Z,2.55
2023-03-30T07:02:19.811Z,1.63
2023-03-30T07:04:46.936Z,2.80
2023-03-30T07:07:13.909Z,2.30
2023-03-30T07:09:42.740Z,1.75
2023-03-30T07:12:09.133Z,1.80
2023-03-30T07:14:35.705Z,1.63
2023-03-30T07:17:02.293Z,2.20
2023-03-30T07:19:28.723Z,4.22
2023-03-30T07:21:55.403Z,1.40
2023-03-30T07:24:22.007Z,1.92
2023-03-30T07:26:48.454Z,4.18
2023-03-30T07:29:15.671Z,2.75
2023-03-30T07:31:42.312Z,1.92
2023-03-30T07:34:09.510Z,2.45
2023-03-30T07:36:35.788Z,2.40
2023-03-30T07:39:02.325Z,1.95
2023-03-30T07:41:28.682Z,4.80
2023-03-30T07:43:56.905Z,2.03
2023-03-30T07:46:23.256Z,3.42
2023-03-30T07:48:49.907Z,2.67
2023-03-30T07:51:16.489Z,2.17
2023-03-30T07:53:43.079Z,2.30
2023-03-30T07:56:09.471Z,3.13
2023-03-30T07:58:37.000Z,2.28
2023-03-30T08:01:05.015Z,2.00
2023-03-30T08:03:32.809Z,2.10
2023-03-30T08:06:03.989Z,2.80
2023-03-30T08:08:31.348Z,2.67
2023-03-30T08:10:57.834Z,1.38
2023-03-30T08:13:27.545Z,2.20
2023-03-30T08:15:54.599Z,1.75
2023-03-30T08:18:21.158Z,2.88
2023-03-30T08:20:50.307Z,1.88
2023-03-30T08:23:17.004Z,2.03
2023-03-30T08:25:46.606Z,3.17
2023-03-30T08:28:13.413Z,2.42
2023-03-30T08:30:47.204Z,3.05
2023-03-30T08:33:14.796Z,2.00
2023-03-30T08:35:44.105Z,1.67
2023-03-30T08:38:10.464Z,2.05
2023-03-30T08:40:40.711Z,2.03
2023-03-30T08:43:19.456Z,2.78
2023-03-30T08:45:46.386Z,4.00
2023-03-30T08:48:16.923Z,2.15
2023-03-30T08:50:45.966Z,2.15
2023-03-30T08:53:12.577Z,1.25
2023-03-30T08:55:41.643Z,2.17
2023-03-30T08:58:27.162Z,1.30
2023-03-30T09:01:09.139Z,1.35
2023-03-30T09:03:39.599Z,2.75
2023-03-30T09:06:09.064Z,1.23
2023-03-30T09:08:36.078Z,1.38
2023-03-30T09:11:04.676Z,1.08
2023-03-30T09:13:33.539Z,1.95
2023-03-30T09:16:03.034Z,1.17
2023-03-30T09:18:34.405Z,0.70
2023-03-30T09:21:05.976Z,2.50
2023-03-30T09:23:33.490Z,1.63
2023-03-30T09:26:01.478Z,2.08
2023-03-30T09:28:28.160Z,1.13
2023-03-30T09:31:03.270Z,1.63
2023-03-30T09:33:44.115Z,1.42
2023-03-30T09:36:13.410Z,1.92
2023-03-30T09:38:41.859Z,1.45
2023-03-30T09:41:14.797Z,1.15
2023-03-30T09:43:44.355Z,1.40
2023-03-30T09:46:11.105Z,1.42
2023-03-30T09:48:38.527Z,1.30
2023-03-30T09:51:13.758Z,1.55
2023-03-30T09:53:42.200Z,0.65
2023-03-30T09:56:12.668Z,0.70
2023-03-30T09:58:38.994Z,1.48
2023-03-30T10:01:05.436Z,1.48
2023-03-30T10:03:32.809Z,1.40
2023-03-30T10:06:07.483Z,1.48
2023-03-30T10:08:48.970Z,2.10
2023-03-30T10:11:24.405Z,1.05
2023-03-30T10:13:51.723Z,1.88
2023-03-30T10:16:24.501Z,1.80
2023-03-30T10:18:53.780Z,2.05
2023-03-30T10:21:22.818Z,1.60
2023-03-30T10:23:59.062Z,1.73
2023-03-30T10:26:28.246Z,2.10
2023-03-30T10:28:55.611Z,1.33
2023-03-30T10:31:23.151Z,2.03
2023-03-30T10:33:54.981Z,1.83
2023-03-30T10:36:22.075Z,1.42
2023-03-30T10:38:48.447Z,1.67
2023-03-30T10:41:22.150Z,1.70
2023-03-30T10:43:50.053Z,1.33
2023-03-30T10:46:22.561Z,1.63
2023-03-30T10:49:09.029Z,1.70
2023-03-30T10:51:35.777Z,3.03
2023-03-30T10:54:15.317Z,1.10
2023-03-30T10:56:46.848Z,2.22
2023-03-30T10:59:26.089Z,1.70
2023-03-30T11:02:11.432Z,2.17
2023-03-30T11:04:43.233Z,1.58
2023-03-30T11:07:16.621Z,1.27
2023-03-30T11:09:44.502Z,2.05
2023-03-30T11:12:13.775Z,0.98
2023-03-30T11:14:47.731Z,1.60
2023-03-30T11:17:19.952Z,0.80
2023-03-30T11:19:55.681Z,0.65
2023-03-30T11:22:27.372Z,0.55
2023-03-30T11:24:56.832Z,0.08
2023-03-30T11:27:29.344Z,1.00
2023-03-30T11:29:55.907Z,0.45
2023-03-30T11:32:41.176Z,0.85
2023-03-30T11:35:26.132Z,0.60
2023-03-30T11:38:02.580Z,0.40
2023-03-30T11:40:42.218Z,1.70
2023-03-30T11:43:10.452Z,0.43
2023-03-30T11:45:50.549Z,0.40
2023-03-30T11:50:54.129Z,0.70
2023-03-30T11:53:44.213Z,0.65
2023-03-30T11:56:11.268Z,1.38
2023-03-30T11:58:41.899Z,0.77
2023-03-30T12:01:11.065Z,1.20
2023-03-30T12:03:40.882Z,1.10
2023-03-30T12:06:26.124Z,0.65
2023-03-30T12:09:01.728Z,1.00
2023-03-30T12:11:48.480Z,0.80
2023-03-30T12:14:28.572Z,1.45
2023-03-30T12:16:57.985Z,0.93
2023-03-30T12:19:27.762Z,1.00
2023-03-30T12:21:57.287Z,1.42
2023-03-30T12:24:28.391Z,1.40
2023-03-30T12:27:05.077Z,1.00
2023-03-30T12:30:01.555Z,2.08
2023-03-30T12:32:29.759Z,1.45
2023-03-30T12:34:57.276Z,0.90
2023-03-30T12:37:34.637Z,1.35
2023-03-30T12:40:14.290Z,1.45
2023-03-30T12:42:54.250Z,0.88
2023-03-30T12:45:23.777Z,2.00
2023-03-30T12:47:50.164Z,0.80
2023-03-30T12:50:35.398Z,1.05
2023-03-30T12:53:16.191Z,0.70
2023-03-30T12:55:54.067Z,2.75
2023-03-30T12:58:41.561Z,0.47
2023-03-30T13:01:17.571Z,0.80
2023-03-30T13:03:52.742Z,0.30
2023-03-30T13:06:22.454Z,0.30
2023-03-30T13:08:53.485Z,0.32
2023-03-30T13:11:22.021Z,0.20
2023-03-30T13:13:56.213Z,0.10
2023-03-30T13:16:41.240Z,0.28
2023-03-30T13:19:20.633Z,0.20
2023-03-30T13:21:47.987Z,0.35
2023-03-30T13:24:32.564Z,0.10
2023-03-30T13:27:14.238Z,0.00
2023-03-30T13:29:43.533Z,0.43
2023-03-30T13:32:16.023Z,0.30
2023-03-30T13:34:54.863Z,0.30
2023-03-30T13:37:43.271Z,0.30
2023-03-30T13:40:31.280Z,1.45
2023-03-30T13:43:22.976Z,0.45
2023-03-30T13:46:16.479Z,0.57
2023-03-30T13:49:04.184Z,0.20
2023-03-30T13:51:30.985Z,0.47
2023-03-30T13:54:03.058Z,0.45
2023-03-30T13:56:35.585Z,0.57
2023-03-30T13:59:11.808Z,0.40
2023-03-30T14:01:39.826Z,0.30
2023-03-30T14:04:10.254Z,0.50
2023-03-30T14:06:43.590Z,0.55
2023-03-30T14:09:14.759Z,1.52
2023-03-30T15:08:34.035Z,0.50
2023-03-30T15:11:02.508Z,0.57
2023-03-30T15:13:34.887Z,0.52
2023-03-30T15:16:01.940Z,0.32
2023-03-30T15:18:29.115Z,0.52
2023-03-30T15:20:56.000Z,0.22
2023-03-30T15:23:23.235Z,0.43
2023-03-30T15:25:50.419Z,0.77
2023-03-30T15:28:19.142Z,1.02
2023-03-30T15:30:48.073Z,0.40
2023-03-30T15:33:37.745Z,1.42
2023-03-30T15:36:11.488Z,1.90
2023-03-30T15:38:43.866Z,1.65
2023-03-30T15:41:13.575Z,1.65
2023-03-30T15:43:52.733Z,0.73
2023-03-30T15:46:19.127Z,0.52
2023-03-30T15:48:46.915Z,0.60
2023-03-30T15:51:28.564Z,0.40
2023-03-30T15:54:02.253Z,0.20
2023-03-30T15:56:35.655Z,0.10
2023-03-30T15:59:02.125Z,0.15
2023-03-30T16:01:40.056Z,0.30
2023-03-30T16:04:07.337Z,0.30
2023-03-30T16:06:33.690Z,0.25
2023-03-30T16:08:59.956Z,0.38
2023-03-30T16:11:26.491Z,0.00
2023-03-30T16:13:52.888Z,0.30
2023-03-30T16:16:19.175Z,0.10
2023-03-30T16:18:45.540Z,0.20
2023-03-30T16:21:12.327Z,0.28
2023-03-30T16:23:39.034Z,0.22
2023-03-30T16:26:06.002Z,0.15
2023-03-30T16:28:32.780Z,0.30
2023-03-30T16:31:01.891Z,0.40
2023-03-30T16:33:28.218Z,0.70
2023-03-30T16:35:54.532Z,0.22
2023-03-30T16:38:21.052Z,0.57
2023-03-30T16:40:48.458Z,0.50
2023-03-30T16:43:14.893Z,0.22
2023-03-30T16:45:41.177Z,0.30
2023-03-30T16:48:07.589Z,0.75
2023-03-30T16:50:41.397Z,0.50
2023-03-30T16:53:09.672Z,0.47
2023-03-30T16:55:36.623Z,0.10
2023-03-30T16:58:03.515Z,0.10
2023-03-30T17:00:38.082Z,0.65
2023-03-30T17:03:05.115Z,0.30
2023-03-30T17:05:32.020Z,0.38
2023-03-30T17:08:04.502Z,0.50
2023-03-30T17:10:33.269Z,1.10
2023-03-30T17:12:59.644Z,0.32
2023-03-30T17:15:26.674Z,0.38
2023-03-30T17:17:52.984Z,1.17
2023-03-30T17:20:22.345Z,0.60
2023-03-30T17:22:49.435Z,0.75
2023-03-30T17:25:16.900Z,0.70
2023-03-30T17:27:43.371Z,0.40
2023-03-30T17:30:20.979Z,0.40
2023-03-30T17:32:47.847Z,0.60
2023-03-30T17:35:14.581Z,0.75
2023-03-30T17:37:40.927Z,0.40
2023-03-30T17:40:19.461Z,0.20
2023-03-30T17:42:46.196Z,0.55
2023-03-30T17:45:13.979Z,0.32
2023-03-30T17:47:41.187Z,0.20
2023-03-30T17:50:17.049Z,0.20
2023-03-30T17:52:43.401Z,1.13
2023-03-30T17:55:09.961Z,0.40
2023-03-30T17:57:36.269Z,0.70
2023-03-30T18:00:07.136Z,0.10
2023-03-30T18:02:33.449Z,0.20
2023-03-30T18:04:59.728Z,0.20
2023-03-30T18:07:26.007Z,0.40
2023-03-30T18:09:52.256Z,0.80
2023-03-30T18:12:18.543Z,0.40
2023-03-30T18:14:44.820Z,0.50
2023-03-30T18:17:11.437Z,0.70
2023-03-30T18:19:37.701Z,0.82
2023-03-30T18:22:03.970Z,0.65
2023-03-30T18:24:30.241Z,0.40
2023-03-30T18:26:56.533Z,1.15
2023-03-30T18:29:22.801Z,0.90
2023-03-30T18:31:49.155Z,1.08
2023-03-30T18:34:15.826Z,1.15
2023-03-30T18:36:42.100Z,1.33
2023-03-30T18:39:16.172Z,1.02
2023-03-30T18:41:42.473Z,1.55
2023-03-30T18:44:08.863Z,0.80
2023-03-30T18:46:35.553Z,0.85
2023-03-30T18:49:01.908Z,0.80
2023-03-30T18:51:28.248Z,2.65
2023-03-30T18:53:54.740Z,1.65
2023-03-30T18:56:21.821Z,0.82
2023-03-30T18:58:48.127Z,1.15
2023-03-30T19:01:15.920Z,1.08
2023-03-30T19:03:42.792Z,0.80
2023-03-30T19:06:10.021Z,0.90
2023-03-30T19:08:36.299Z,0.60
2023-03-30T19:11:02.703Z,0.73
2023-03-30T19:13:28.995Z,0.90
2023-03-30T19:15:55.495Z,0.52
2023-03-30T19:18:21.864Z,0.95
2023-03-30T19:20:49.746Z,1.38
2023-03-30T19:23:16.640Z,0.88
2023-03-30T19:25:43.714Z,1.23
2023-03-30T19:28:10.248Z,1.58
2023-03-30T19:30:39.232Z,0.80
2023-03-30T19:33:06.986Z,0.83
2023-03-30T19:35:33.437Z,0.82
2023-03-30T19:37:59.767Z,0.70
2023-03-30T19:40:26.113Z,0.98
2023-03-30T19:42:52.421Z,1.52
2023-03-30T19:45:23.603Z,0.90
2023-03-30T19:47:50.075Z,1.42
2023-03-30T19:50:18.061Z,1.10
2023-03-30T19:52:47.066Z,1.75
2023-03-30T19:55:13.370Z,1.02
2023-03-30T19:57:39.801Z,1.17
2023-03-30T20:00:12.731Z,1.05
2023-03-30T20:02:39.602Z,0.90
2023-03-30T20:05:06.088Z,0.93
2023-03-30T20:07:32.513Z,0.80
2023-03-30T20:09:58.780Z,1.23
2023-03-30T20:12:25.208Z,0.80
2023-03-30T20:14:51.780Z,2.83
2023-03-30T20:17:18.065Z,0.93
2023-03-30T20:19:44.346Z,0.90
2023-03-30T20:22:10.767Z,1.05
2023-03-30T20:24:38.952Z,0.93
2023-03-30T20:27:05.801Z,1.20
2023-03-30T20:29:32.698Z,0.60
2023-03-30T20:31:59.058Z,0.40
2023-03-30T20:34:27.478Z,0.60
2023-03-30T20:36:53.852Z,0.77
2023-03-30T20:39:22.210Z,0.50
2023-03-30T20:41:53.882Z,0.32
2023-03-30T20:44:30.372Z,0.32
2023-03-30T20:46:58.073Z,0.57
2023-03-30T20:49:24.862Z,0.45
2023-03-30T20:51:51.184Z,0.50
2023-03-30T20:54:17.981Z,0.57
2023-03-30T20:56:44.426Z,0.35
2023-03-30T20:59:10.706Z,0.40
2023-03-30T21:01:40.664Z,0.73
2023-03-30T21:04:07.296Z,0.85
2023-03-30T21:06:33.835Z,0.50
2023-03-30T21:09:01.811Z,0.60
2023-03-30T21:11:29.049Z,0.28
2023-03-30T21:13:55.986Z,0.50
2023-03-30T21:16:23.345Z,0.55
2023-03-30T21:18:49.824Z,0.45
2023-03-30T21:21:16.654Z,0.70
2023-03-30T21:23:44.135Z,0.50
2023-03-30T21:26:10.892Z,0.50
2023-03-30T21:28:37.336Z,0.50
2023-03-30T21:31:08.053Z,0.70
2023-03-30T21:33:35.479Z,0.60
2023-03-30T21:36:02.835Z,0.60
2023-03-30T21:38:29.617Z,0.50
2023-03-30T21:40:56.997Z,0.88
2023-03-30T21:43:23.348Z,0.98
2023-03-30T21:45:53.605Z,1.05
2023-03-30T21:48:19.962Z,0.57
2023-03-30T21:50:46.212Z,0.70
2023-03-30T21:53:12.508Z,1.00
2023-03-30T21:55:38.783Z,0.88
2023-03-30T21:58:05.048Z,0.70
2023-03-30T22:00:31.333Z,0.77
2023-03-30T22:02:57.721Z,0.52
2023-03-30T22:05:24.014Z,0.80
2023-03-30T22:07:50.488Z,0.85
2023-03-30T22:10:16.885Z,2.20
2023-03-30T22:12:43.200Z,1.05
2023-03-30T22:15:09.616Z,0.77
2023-03-30T22:17:41.527Z,1.08
2023-03-30T22:20:10.137Z,0.65
2023-03-30T22:22:36.415Z,0.98
2023-03-30T22:25:02.807Z,1.40
2023-03-30T22:27:29.095Z,1.15
2023-03-30T22:29:55.434Z,1.00
2023-03-30T22:32:21.915Z,1.08
2023-03-30T22:34:48.287Z,1.05
2023-03-30T22:37:14.553Z,0.93
2023-03-30T22:39:40.952Z,1.15
2023-03-30T22:42:07.217Z,0.68
2023-03-30T22:44:33.495Z,1.33
2023-03-30T22:46:59.814Z,1.10
2023-03-30T22:49:26.078Z,2.63
2023-03-30T22:51:53.230Z,2.15
2023-03-30T22:54:19.698Z,0.95
2023-03-30T22:56:46.336Z,1.50
2023-03-30T22:59:12.672Z,1.02
2023-03-30T23:01:39.227Z,1.05
2023-03-30T23:04:06.472Z,1.48
2023-03-30T23:06:34.283Z,0.93
2023-03-30T23:09:04.246Z,1.15
2023-03-30T23:11:31.365Z,1.30
2023-03-30T23:14:04.862Z,1.17
2023-03-30T23:16:35.786Z,1.17
2023-03-30T23:19:02.277Z,1.20
2023-03-30T23:21:34.667Z,1.00
2023-03-30T23:24:02.291Z,0.85
2023-03-30T23:26:28.620Z,0.85
2023-03-30T23:28:54.895Z,0.90
2023-03-30T23:31:22.105Z,1.08
2023-03-30T23:33:48.528Z,1.67
2023-03-30T23:36:16.928Z,1.52
2023-03-30T23:38:43.735Z,0.57
2023-03-30T23:41:12.511Z,2.70
2023-03-30T23:43:38.845Z,1.17
2023-03-30T23:46:05.475Z,1.17
2023-03-30T23:48:32.396Z,1.20
2023-03-30T23:50:58.920Z,1.95
2023-03-30T23:53:26.444Z,0.90
2023-03-30T23:55:53.127Z,1.20
2023-03-30T23:58:19.463Z,1.13
